sensor_id;sensor_type;location;lat;lon;timestamp;P1;durP1;ratioP1;P2;durP2;ratioP2
26486;SDS011;14425;56.136;40.360;2024-02-21T00:01:03;8.00;;;3.88;;
26486;SDS011;14425;56.136;40.360;2024-02-21T00:03:29;4.07;;;3.22;;
26486;SDS011;14425;56.136;40.360;2024-02-21T00:05:54;5.28;;;3.38;;
26486;SDS011;14425;56.136;40.360;2024-02-21T00:08:20;4.03;;;3.10;;
26486;SDS011;14425;56.136;40.360;2024-02-21T00:10:45;4.70;;;3.30;;
26486;SDS011;14425;56.136;40.360;2024-02-21T00:13:11;6.43;;;3.97;;
26486;SDS011;14425;56.136;40.360;2024-02-21T00:15:37;4.20;;;3.47;;
26486;SDS011;14425;56.136;40.360;2024-02-21T00:18:02;5.07;;;3.13;;
26486;SDS011;14425;56.136;40.360;2024-02-21T00:20:27;5.43;;;3.38;;
26486;SDS011;14425;56.136;40.360;2024-02-21T00:22:53;6.68;;;4.15;;
26486;SDS011;14425;56.136;40.360;2024-02-21T00:25:19;5.35;;;4.13;;
26486;SDS011;14425;56.136;40.360;2024-02-21T00:27:45;6.85;;;4.22;;
26486;SDS011;14425;56.136;40.360;2024-02-21T00:30:10;5.40;;;3.58;;
26486;SDS011;14425;56.136;40.360;2024-02-21T00:32:36;6.25;;;3.72;;
26486;SDS011;14425;56.136;40.360;2024-02-21T00:35:01;7.43;;;3.70;;
26486;SDS011;14425;56.136;40.360;2024-02-21T00:37:27;4.70;;;3.33;;
26486;SDS011;14425;56.136;40.360;2024-02-21T00:39:55;7.05;;;3.58;;
26486;SDS011;14425;56.136;40.360;2024-02-21T00:42:21;5.82;;;3.00;;
26486;SDS011;14425;56.136;40.360;2024-02-21T00:44:46;7.60;;;3.95;;
26486;SDS011;14425;56.136;40.360;2024-02-21T00:47:12;5.93;;;3.58;;
26486;SDS011;14425;56.136;40.360;2024-02-21T00:49:37;6.65;;;4.10;;
26486;SDS011;14425;56.136;40.360;2024-02-21T00:52:02;6.30;;;4.38;;
26486;SDS011;14425;56.136;40.360;2024-02-21T00:54:28;5.40;;;4.10;;
26486;SDS011;14425;56.136;40.360;2024-02-21T00:56:53;5.65;;;3.17;;
26486;SDS011;14425;56.136;40.360;2024-02-21T00:59:19;5.22;;;3.55;;
26486;SDS011;14425;56.136;40.360;2024-02-21T01:01:44;7.38;;;3.50;;
26486;SDS011;14425;56.136;40.360;2024-02-21T01:04:09;4.15;;;3.17;;
26486;SDS011;14425;56.136;40.360;2024-02-21T01:06:35;4.78;;;2.95;;
26486;SDS011;14425;56.136;40.360;2024-02-21T01:09:01;5.40;;;4.07;;
26486;SDS011;14425;56.136;40.360;2024-02-21T01:11:26;4.38;;;3.35;;
26486;SDS011;14425;56.136;40.360;2024-02-21T01:13:52;4.85;;;2.72;;
26486;SDS011;14425;56.136;40.360;2024-02-21T01:16:18;4.93;;;3.20;;
26486;SDS011;14425;56.136;40.360;2024-02-21T01:18:43;9.02;;;4.57;;
26486;SDS011;14425;56.136;40.360;2024-02-21T01:21:08;4.70;;;3.45;;
26486;SDS011;14425;56.136;40.360;2024-02-21T01:23:35;7.03;;;3.55;;
26486;SDS011;14425;56.136;40.360;2024-02-21T01:26:01;4.47;;;3.72;;
26486;SDS011;14425;56.136;40.360;2024-02-21T01:28:26;6.55;;;3.58;;
26486;SDS011;14425;56.136;40.360;2024-02-21T01:30:52;4.15;;;3.42;;
26486;SDS011;14425;56.136;40.360;2024-02-21T01:33:17;6.35;;;3.53;;
26486;SDS011;14425;56.136;40.360;2024-02-21T01:35:44;5.40;;;3.08;;
26486;SDS011;14425;56.136;40.360;2024-02-21T01:38:09;4.22;;;3.03;;
26486;SDS011;14425;56.136;40.360;2024-02-21T01:40:35;3.67;;;2.58;;
26486;SDS011;14425;56.136;40.360;2024-02-21T01:43:02;5.05;;;3.20;;
26486;SDS011;14425;56.136;40.360;2024-02-21T01:45:27;4.88;;;3.22;;
26486;SDS011;14425;56.136;40.360;2024-02-21T01:47:53;3.90;;;3.28;;
26486;SDS011;14425;56.136;40.360;2024-02-21T01:50:18;4.70;;;2.55;;
26486;SDS011;14425;56.136;40.360;2024-02-21T01:52:44;3.42;;;2.65;;
26486;SDS011;14425;56.136;40.360;2024-02-21T01:55:10;3.92;;;2.92;;
26486;SDS011;14425;56.136;40.360;2024-02-21T01:57:38;4.15;;;3.05;;
26486;SDS011;14425;56.136;40.360;2024-02-21T02:00:04;4.55;;;3.20;;
26486;SDS011;14425;56.136;40.360;2024-02-21T02:02:30;5.30;;;3.20;;
26486;SDS011;14425;56.136;40.360;2024-02-21T02:04:55;5.93;;;3.30;;
26486;SDS011;14425;56.136;40.360;2024-02-21T02:07:21;5.68;;;2.92;;
26486;SDS011;14425;56.136;40.360;2024-02-21T02:09:46;5.28;;;3.33;;
26486;SDS011;14425;56.136;40.360;2024-02-21T02:12:12;5.60;;;3.35;;
26486;SDS011;14425;56.136;40.360;2024-02-21T02:14:37;5.05;;;2.80;;
26486;SDS011;14425;56.136;40.360;2024-02-21T02:17:03;4.65;;;3.20;;
26486;SDS011;14425;56.136;40.360;2024-02-21T02:19:28;3.55;;;2.70;;
26486;SDS011;14425;56.136;40.360;2024-02-21T02:21:56;2.92;;;2.20;;
26486;SDS011;14425;56.136;40.360;2024-02-21T02:24:25;5.22;;;2.85;;
26486;SDS011;14425;56.136;40.360;2024-02-21T02:26:51;3.13;;;2.45;;
26486;SDS011;14425;56.136;40.360;2024-02-21T02:29:16;5.68;;;3.55;;
26486;SDS011;14425;56.136;40.360;2024-02-21T02:31:42;4.72;;;2.80;;
26486;SDS011;14425;56.136;40.360;2024-02-21T02:34:08;3.20;;;2.85;;
26486;SDS011;14425;56.136;40.360;2024-02-21T02:36:33;5.88;;;2.85;;
26486;SDS011;14425;56.136;40.360;2024-02-21T02:38:59;6.90;;;3.03;;
26486;SDS011;14425;56.136;40.360;2024-02-21T02:41:25;3.55;;;2.97;;
26486;SDS011;14425;56.136;40.360;2024-02-21T02:43:50;4.70;;;2.80;;
26486;SDS011;14425;56.136;40.360;2024-02-21T02:46:15;5.68;;;2.67;;
26486;SDS011;14425;56.136;40.360;2024-02-21T02:48:41;3.65;;;3.03;;
26486;SDS011;14425;56.136;40.360;2024-02-21T02:51:06;5.47;;;3.00;;
26486;SDS011;14425;56.136;40.360;2024-02-21T02:53:32;3.75;;;2.50;;
26486;SDS011;14425;56.136;40.360;2024-02-21T02:55:57;4.32;;;2.95;;
26486;SDS011;14425;56.136;40.360;2024-02-21T02:58:22;5.25;;;3.05;;
26486;SDS011;14425;56.136;40.360;2024-02-21T03:00:48;5.90;;;3.13;;
26486;SDS011;14425;56.136;40.360;2024-02-21T03:03:13;6.15;;;2.88;;
26486;SDS011;14425;56.136;40.360;2024-02-21T03:05:38;3.25;;;2.45;;
26486;SDS011;14425;56.136;40.360;2024-02-21T03:08:04;6.95;;;2.63;;
26486;SDS011;14425;56.136;40.360;2024-02-21T03:10:32;4.70;;;2.70;;
26486;SDS011;14425;56.136;40.360;2024-02-21T03:12:58;4.95;;;2.80;;
26486;SDS011;14425;56.136;40.360;2024-02-21T03:15:24;6.90;;;3.45;;
26486;SDS011;14425;56.136;40.360;2024-02-21T03:17:49;7.00;;;2.67;;
26486;SDS011;14425;56.136;40.360;2024-02-21T03:20:14;4.45;;;3.33;;
26486;SDS011;14425;56.136;40.360;2024-02-21T03:22:40;4.57;;;2.80;;
26486;SDS011;14425;56.136;40.360;2024-02-21T03:25:06;4.70;;;3.00;;
26486;SDS011;14425;56.136;40.360;2024-02-21T03:27:37;5.05;;;3.15;;
26486;SDS011;14425;56.136;40.360;2024-02-21T03:30:03;3.00;;;2.67;;
26486;SDS011;14425;56.136;40.360;2024-02-21T03:32:30;4.05;;;2.60;;
26486;SDS011;14425;56.136;40.360;2024-02-21T03:34:56;3.13;;;2.58;;
26486;SDS011;14425;56.136;40.360;2024-02-21T03:37:21;4.28;;;3.20;;
26486;SDS011;14425;56.136;40.360;2024-02-21T03:39:47;4.18;;;3.22;;
26486;SDS011;14425;56.136;40.360;2024-02-21T03:42:12;4.63;;;3.08;;
26486;SDS011;14425;56.136;40.360;2024-02-21T03:44:38;4.95;;;3.03;;
26486;SDS011;14425;56.136;40.360;2024-02-21T03:47:04;4.97;;;3.08;;
26486;SDS011;14425;56.136;40.360;2024-02-21T03:49:29;4.32;;;2.78;;
26486;SDS011;14425;56.136;40.360;2024-02-21T03:51:55;4.28;;;3.05;;
26486;SDS011;14425;56.136;40.360;2024-02-21T03:54:20;5.75;;;3.00;;
26486;SDS011;14425;56.136;40.360;2024-02-21T03:56:46;4.35;;;2.85;;
26486;SDS011;14425;56.136;40.360;2024-02-21T03:59:15;4.63;;;2.83;;
26486;SDS011;14425;56.136;40.360;2024-02-21T04:01:40;4.00;;;3.00;;
26486;SDS011;14425;56.136;40.360;2024-02-21T04:04:06;5.32;;;3.10;;
26486;SDS011;14425;56.136;40.360;2024-02-21T04:06:32;6.03;;;3.65;;
26486;SDS011;14425;56.136;40.360;2024-02-21T04:08:57;4.75;;;3.72;;
26486;SDS011;14425;56.136;40.360;2024-02-21T04:11:23;5.13;;;3.60;;
26486;SDS011;14425;56.136;40.360;2024-02-21T04:13:48;3.53;;;2.72;;
26486;SDS011;14425;56.136;40.360;2024-02-21T04:16:16;3.22;;;2.55;;
26486;SDS011;14425;56.136;40.360;2024-02-21T04:18:42;4.80;;;3.42;;
26486;SDS011;14425;56.136;40.360;2024-02-21T04:21:07;5.50;;;3.50;;
26486;SDS011;14425;56.136;40.360;2024-02-21T04:23:33;3.78;;;2.70;;
26486;SDS011;14425;56.136;40.360;2024-02-21T04:25:58;3.83;;;3.08;;
26486;SDS011;14425;56.136;40.360;2024-02-21T04:28:23;4.18;;;3.13;;
26486;SDS011;14425;56.136;40.360;2024-02-21T04:30:49;5.32;;;3.72;;
26486;SDS011;14425;56.136;40.360;2024-02-21T04:33:14;5.93;;;3.83;;
26486;SDS011;14425;56.136;40.360;2024-02-21T04:35:40;8.50;;;3.85;;
26486;SDS011;14425;56.136;40.360;2024-02-21T04:38:05;6.30;;;4.43;;
26486;SDS011;14425;56.136;40.360;2024-02-21T04:40:30;6.03;;;4.03;;
26486;SDS011;14425;56.136;40.360;2024-02-21T04:42:56;7.50;;;3.63;;
26486;SDS011;14425;56.136;40.360;2024-02-21T04:45:22;5.00;;;3.38;;
26486;SDS011;14425;56.136;40.360;2024-02-21T04:47:47;5.80;;;3.63;;
26486;SDS011;14425;56.136;40.360;2024-02-21T04:50:12;5.65;;;3.38;;
26486;SDS011;14425;56.136;40.360;2024-02-21T04:52:38;5.35;;;3.90;;
26486;SDS011;14425;56.136;40.360;2024-02-21T04:55:05;5.30;;;3.92;;
26486;SDS011;14425;56.136;40.360;2024-02-21T04:57:31;6.07;;;3.90;;
26486;SDS011;14425;56.136;40.360;2024-02-21T04:59:56;5.60;;;3.88;;
26486;SDS011;14425;56.136;40.360;2024-02-21T05:02:22;6.97;;;3.92;;
26486;SDS011;14425;56.136;40.360;2024-02-21T05:04:49;6.45;;;3.97;;
26486;SDS011;14425;56.136;40.360;2024-02-21T05:07:15;5.10;;;3.97;;
26486;SDS011;14425;56.136;40.360;2024-02-21T05:09:44;7.90;;;3.72;;
26486;SDS011;14425;56.136;40.360;2024-02-21T05:12:09;10.50;;;4.45;;
26486;SDS011;14425;56.136;40.360;2024-02-21T05:14:35;5.90;;;3.45;;
26486;SDS011;14425;56.136;40.360;2024-02-21T05:17:00;7.50;;;3.65;;
26486;SDS011;14425;56.136;40.360;2024-02-21T05:19:25;6.70;;;3.60;;
26486;SDS011;14425;56.136;40.360;2024-02-21T05:21:51;6.25;;;3.28;;
26486;SDS011;14425;56.136;40.360;2024-02-21T05:24:16;5.03;;;3.47;;
26486;SDS011;14425;56.136;40.360;2024-02-21T05:26:42;4.60;;;3.33;;
26486;SDS011;14425;56.136;40.360;2024-02-21T05:29:07;5.57;;;3.22;;
26486;SDS011;14425;56.136;40.360;2024-02-21T05:34:16;4.28;;;3.75;;
26486;SDS011;14425;56.136;40.360;2024-02-21T05:36:41;6.25;;;3.72;;
26486;SDS011;14425;56.136;40.360;2024-02-21T05:39:07;4.55;;;3.53;;
26486;SDS011;14425;56.136;40.360;2024-02-21T05:41:32;5.80;;;3.67;;
26486;SDS011;14425;56.136;40.360;2024-02-21T05:43:58;10.80;;;3.38;;
26486;SDS011;14425;56.136;40.360;2024-02-21T05:46:23;7.57;;;4.65;;
26486;SDS011;14425;56.136;40.360;2024-02-21T05:48:49;7.47;;;4.90;;
26486;SDS011;14425;56.136;40.360;2024-02-21T05:51:15;8.18;;;4.80;;
26486;SDS011;14425;56.136;40.360;2024-02-21T05:53:40;8.00;;;3.47;;
26486;SDS011;14425;56.136;40.360;2024-02-21T05:56:10;8.00;;;4.28;;
26486;SDS011;14425;56.136;40.360;2024-02-21T05:58:35;7.15;;;3.83;;
26486;SDS011;14425;56.136;40.360;2024-02-21T06:01:00;6.55;;;3.58;;
26486;SDS011;14425;56.136;40.360;2024-02-21T06:03:28;5.15;;;3.95;;
26486;SDS011;14425;56.136;40.360;2024-02-21T06:05:53;7.72;;;3.95;;
26486;SDS011;14425;56.136;40.360;2024-02-21T06:08:19;6.15;;;3.78;;
26486;SDS011;14425;56.136;40.360;2024-02-21T06:10:45;10.30;;;4.65;;
26486;SDS011;14425;56.136;40.360;2024-02-21T06:13:10;6.03;;;4.05;;
26486;SDS011;14425;56.136;40.360;2024-02-21T06:15:36;4.25;;;3.58;;
26486;SDS011;14425;56.136;40.360;2024-02-21T06:18:01;6.35;;;4.05;;
26486;SDS011;14425;56.136;40.360;2024-02-21T06:20:27;9.23;;;4.35;;
26486;SDS011;14425;56.136;40.360;2024-02-21T06:22:53;6.50;;;4.18;;
26486;SDS011;14425;56.136;40.360;2024-02-21T06:25:18;6.60;;;4.57;;
26486;SDS011;14425;56.136;40.360;2024-02-21T06:27:45;8.32;;;4.28;;
26486;SDS011;14425;56.136;40.360;2024-02-21T06:30:10;7.97;;;3.70;;
26486;SDS011;14425;56.136;40.360;2024-02-21T06:32:36;7.55;;;5.63;;
26486;SDS011;14425;56.136;40.360;2024-02-21T06:35:01;10.45;;;5.13;;
26486;SDS011;14425;56.136;40.360;2024-02-21T06:37:29;8.07;;;5.10;;
26486;SDS011;14425;56.136;40.360;2024-02-21T06:39:55;10.32;;;5.90;;
26486;SDS011;14425;56.136;40.360;2024-02-21T06:42:21;8.55;;;4.30;;
26486;SDS011;14425;56.136;40.360;2024-02-21T06:44:46;9.52;;;3.95;;
26486;SDS011;14425;56.136;40.360;2024-02-21T06:47:12;14.48;;;4.63;;
26486;SDS011;14425;56.136;40.360;2024-02-21T06:49:37;9.35;;;4.65;;
26486;SDS011;14425;56.136;40.360;2024-02-21T06:52:04;6.43;;;4.22;;
26486;SDS011;14425;56.136;40.360;2024-02-21T06:54:29;7.68;;;4.40;;
26486;SDS011;14425;56.136;40.360;2024-02-21T06:56:55;8.48;;;4.70;;
26486;SDS011;14425;56.136;40.360;2024-02-21T06:59:20;9.05;;;4.13;;
26486;SDS011;14425;56.136;40.360;2024-02-21T07:01:47;10.07;;;4.80;;
26486;SDS011;14425;56.136;40.360;2024-02-21T07:04:13;8.65;;;5.05;;
26486;SDS011;14425;56.136;40.360;2024-02-21T07:06:38;9.90;;;4.97;;
26486;SDS011;14425;56.136;40.360;2024-02-21T07:09:04;6.88;;;4.13;;
26486;SDS011;14425;56.136;40.360;2024-02-21T07:11:29;7.30;;;4.68;;
26486;SDS011;14425;56.136;40.360;2024-02-21T07:13:54;9.35;;;3.88;;
26486;SDS011;14425;56.136;40.360;2024-02-21T07:16:20;8.85;;;4.55;;
26486;SDS011;14425;56.136;40.360;2024-02-21T07:18:45;7.47;;;4.22;;
26486;SDS011;14425;56.136;40.360;2024-02-21T07:21:10;7.45;;;5.05;;
26486;SDS011;14425;56.136;40.360;2024-02-21T07:23:36;7.55;;;4.80;;
26486;SDS011;14425;56.136;40.360;2024-02-21T07:26:01;10.27;;;4.68;;
26486;SDS011;14425;56.136;40.360;2024-02-21T07:28:27;7.32;;;5.03;;
26486;SDS011;14425;56.136;40.360;2024-02-21T07:30:52;8.95;;;5.07;;
26486;SDS011;14425;56.136;40.360;2024-02-21T07:33:17;7.95;;;4.57;;
26486;SDS011;14425;56.136;40.360;2024-02-21T07:35:43;8.25;;;4.80;;
26486;SDS011;14425;56.136;40.360;2024-02-21T07:38:10;6.95;;;4.30;;
26486;SDS011;14425;56.136;40.360;2024-02-21T07:40:37;7.65;;;4.55;;
26486;SDS011;14425;56.136;40.360;2024-02-21T07:43:03;5.47;;;3.70;;
26486;SDS011;14425;56.136;40.360;2024-02-21T07:45:28;8.80;;;4.60;;
26486;SDS011;14425;56.136;40.360;2024-02-21T07:47:54;6.30;;;3.75;;
26486;SDS011;14425;56.136;40.360;2024-02-21T07:50:19;8.82;;;4.40;;
26486;SDS011;14425;56.136;40.360;2024-02-21T07:52:44;5.88;;;3.65;;
26486;SDS011;14425;56.136;40.360;2024-02-21T07:55:10;5.25;;;4.28;;
26486;SDS011;14425;56.136;40.360;2024-02-21T07:57:36;8.77;;;4.15;;
26486;SDS011;14425;56.136;40.360;2024-02-21T08:00:01;8.45;;;4.63;;
26486;SDS011;14425;56.136;40.360;2024-02-21T08:02:27;8.40;;;4.70;;
26486;SDS011;14425;56.136;40.360;2024-02-21T08:04:53;5.53;;;4.10;;
26486;SDS011;14425;56.136;40.360;2024-02-21T08:07:18;5.90;;;4.10;;
26486;SDS011;14425;56.136;40.360;2024-02-21T08:09:44;5.03;;;3.47;;
26486;SDS011;14425;56.136;40.360;2024-02-21T08:12:09;6.65;;;4.25;;
26486;SDS011;14425;56.136;40.360;2024-02-21T08:14:34;10.40;;;4.30;;
26486;SDS011;14425;56.136;40.360;2024-02-21T08:17:00;7.45;;;3.78;;
26486;SDS011;14425;56.136;40.360;2024-02-21T08:19:25;4.97;;;4.32;;
26486;SDS011;14425;56.136;40.360;2024-02-21T08:21:51;5.00;;;4.25;;
26486;SDS011;14425;56.136;40.360;2024-02-21T08:24:16;5.25;;;3.80;;
26486;SDS011;14425;56.136;40.360;2024-02-21T08:26:42;7.55;;;5.07;;
26486;SDS011;14425;56.136;40.360;2024-02-21T08:29:07;5.65;;;3.97;;
26486;SDS011;14425;56.136;40.360;2024-02-21T08:31:33;7.07;;;4.50;;
26486;SDS011;14425;56.136;40.360;2024-02-21T08:33:59;7.40;;;4.97;;
26486;SDS011;14425;56.136;40.360;2024-02-21T08:36:31;5.68;;;3.80;;
26486;SDS011;14425;56.136;40.360;2024-02-21T08:38:57;4.38;;;3.38;;
26486;SDS011;14425;56.136;40.360;2024-02-21T08:41:23;5.43;;;3.80;;
26486;SDS011;14425;56.136;40.360;2024-02-21T08:43:50;6.88;;;3.63;;
26486;SDS011;14425;56.136;40.360;2024-02-21T08:46:15;8.07;;;4.13;;
26486;SDS011;14425;56.136;40.360;2024-02-21T08:48:40;8.75;;;3.63;;
26486;SDS011;14425;56.136;40.360;2024-02-21T08:51:06;7.15;;;4.10;;
26486;SDS011;14425;56.136;40.360;2024-02-21T08:53:31;8.35;;;3.80;;
26486;SDS011;14425;56.136;40.360;2024-02-21T08:55:57;4.90;;;4.22;;
26486;SDS011;14425;56.136;40.360;2024-02-21T08:58:22;6.93;;;3.90;;
26486;SDS011;14425;56.136;40.360;2024-02-21T09:00:49;4.00;;;3.58;;
26486;SDS011;14425;56.136;40.360;2024-02-21T09:03:14;5.22;;;3.00;;
26486;SDS011;14425;56.136;40.360;2024-02-21T09:05:40;5.03;;;3.30;;
26486;SDS011;14425;56.136;40.360;2024-02-21T09:08:06;5.68;;;3.47;;
26486;SDS011;14425;56.136;40.360;2024-02-21T09:10:31;4.18;;;2.95;;
26486;SDS011;14425;56.136;40.360;2024-02-21T09:12:56;3.85;;;3.20;;
26486;SDS011;14425;56.136;40.360;2024-02-21T09:15:22;3.35;;;2.90;;
26486;SDS011;14425;56.136;40.360;2024-02-21T09:17:49;4.15;;;3.38;;
26486;SDS011;14425;56.136;40.360;2024-02-21T09:20:14;4.75;;;3.03;;
26486;SDS011;14425;56.136;40.360;2024-02-21T09:22:41;4.57;;;3.35;;
26486;SDS011;14425;56.136;40.360;2024-02-21T09:25:07;4.80;;;3.13;;
26486;SDS011;14425;56.136;40.360;2024-02-21T09:27:32;6.07;;;3.67;;
26486;SDS011;14425;56.136;40.360;2024-02-21T09:29:58;4.10;;;3.17;;
26486;SDS011;14425;56.136;40.360;2024-02-21T09:32:23;5.57;;;4.05;;
26486;SDS011;14425;56.136;40.360;2024-02-21T09:34:48;6.30;;;3.78;;
26486;SDS011;14425;56.136;40.360;2024-02-21T09:37:14;6.05;;;3.50;;
26486;SDS011;14425;56.136;40.360;2024-02-21T09:39:39;4.55;;;3.47;;
26486;SDS011;14425;56.136;40.360;2024-02-21T09:42:05;5.80;;;3.65;;
26486;SDS011;14425;56.136;40.360;2024-02-21T09:44:36;3.60;;;2.95;;
26486;SDS011;14425;56.136;40.360;2024-02-21T09:49:31;5.22;;;3.47;;
26486;SDS011;14425;56.136;40.360;2024-02-21T09:52:04;5.75;;;3.30;;
26486;SDS011;14425;56.136;40.360;2024-02-21T09:54:33;4.47;;;3.30;;
26486;SDS011;14425;56.136;40.360;2024-02-21T09:56:59;2.95;;;2.58;;
26486;SDS011;14425;56.136;40.360;2024-02-21T09:59:24;5.30;;;3.40;;
26486;SDS011;14425;56.136;40.360;2024-02-21T10:01:52;5.03;;;3.60;;
26486;SDS011;14425;56.136;40.360;2024-02-21T10:04:19;4.30;;;3.53;;
26486;SDS011;14425;56.136;40.360;2024-02-21T10:06:44;6.00;;;3.72;;
26486;SDS011;14425;56.136;40.360;2024-02-21T10:09:19;2.35;;;2.15;;
26486;SDS011;14425;56.136;40.360;2024-02-21T10:11:45;5.85;;;3.42;;
26486;SDS011;14425;56.136;40.360;2024-02-21T10:14:10;4.45;;;3.50;;
26486;SDS011;14425;56.136;40.360;2024-02-21T10:16:35;4.72;;;3.30;;
26486;SDS011;14425;56.136;40.360;2024-02-21T10:19:02;5.63;;;3.33;;
26486;SDS011;14425;56.136;40.360;2024-02-21T10:21:28;5.55;;;2.83;;
26486;SDS011;14425;56.136;40.360;2024-02-21T10:23:54;4.13;;;3.70;;
26486;SDS011;14425;56.136;40.360;2024-02-21T10:26:20;5.05;;;2.70;;
26486;SDS011;14425;56.136;40.360;2024-02-21T10:28:46;6.65;;;3.55;;
26486;SDS011;14425;56.136;40.360;2024-02-21T10:31:25;5.07;;;3.10;;
26486;SDS011;14425;56.136;40.360;2024-02-21T10:33:55;8.25;;;4.32;;
26486;SDS011;14425;56.136;40.360;2024-02-21T10:36:20;4.15;;;2.70;;
26486;SDS011;14425;56.136;40.360;2024-02-21T10:38:46;6.03;;;3.90;;
26486;SDS011;14425;56.136;40.360;2024-02-21T10:41:13;7.43;;;3.20;;
26486;SDS011;14425;56.136;40.360;2024-02-21T10:43:40;5.25;;;3.53;;
26486;SDS011;14425;56.136;40.360;2024-02-21T10:46:06;4.13;;;3.47;;
26486;SDS011;14425;56.136;40.360;2024-02-21T10:48:36;7.55;;;3.35;;
26486;SDS011;14425;56.136;40.360;2024-02-21T10:51:06;4.60;;;3.33;;
26486;SDS011;14425;56.136;40.360;2024-02-21T10:53:41;5.40;;;3.53;;
26486;SDS011;14425;56.136;40.360;2024-02-21T10:56:16;4.70;;;2.50;;
26486;SDS011;14425;56.136;40.360;2024-02-21T10:58:42;5.47;;;3.50;;
26486;SDS011;14425;56.136;40.360;2024-02-21T11:01:08;3.75;;;3.33;;
26486;SDS011;14425;56.136;40.360;2024-02-21T11:03:33;4.80;;;3.65;;
26486;SDS011;14425;56.136;40.360;2024-02-21T11:06:01;4.88;;;3.65;;
26486;SDS011;14425;56.136;40.360;2024-02-21T11:08:26;4.88;;;3.60;;
26486;SDS011;14425;56.136;40.360;2024-02-21T11:10:56;10.55;;;3.65;;
26486;SDS011;14425;56.136;40.360;2024-02-21T11:13:29;5.32;;;3.70;;
26486;SDS011;14425;56.136;40.360;2024-02-21T11:16:05;7.00;;;4.00;;
26486;SDS011;14425;56.136;40.360;2024-02-21T11:18:30;4.88;;;3.53;;
26486;SDS011;14425;56.136;40.360;2024-02-21T11:20:56;3.95;;;3.13;;
26486;SDS011;14425;56.136;40.360;2024-02-21T11:23:25;5.20;;;4.07;;
26486;SDS011;14425;56.136;40.360;2024-02-21T11:25:51;12.05;;;3.95;;
26486;SDS011;14425;56.136;40.360;2024-02-21T11:28:16;5.35;;;4.15;;
26486;SDS011;14425;56.136;40.360;2024-02-21T11:30:50;5.40;;;3.55;;
26486;SDS011;14425;56.136;40.360;2024-02-21T11:33:16;3.78;;;3.17;;
26486;SDS011;14425;56.136;40.360;2024-02-21T11:35:41;6.40;;;3.95;;
26486;SDS011;14425;56.136;40.360;2024-02-21T11:38:10;4.10;;;3.45;;
26486;SDS011;14425;56.136;40.360;2024-02-21T11:40:40;3.53;;;2.72;;
26486;SDS011;14425;56.136;40.360;2024-02-21T11:43:06;4.95;;;3.50;;
26486;SDS011;14425;56.136;40.360;2024-02-21T11:45:32;4.35;;;3.13;;
26486;SDS011;14425;56.136;40.360;2024-02-21T11:47:59;6.75;;;3.20;;
26486;SDS011;14425;56.136;40.360;2024-02-21T11:50:26;4.93;;;3.47;;
26486;SDS011;14425;56.136;40.360;2024-02-21T11:52:51;4.40;;;3.20;;
26486;SDS011;14425;56.136;40.360;2024-02-21T11:55:19;5.28;;;3.85;;
26486;SDS011;14425;56.136;40.360;2024-02-21T11:57:44;8.07;;;4.45;;
26486;SDS011;14425;56.136;40.360;2024-02-21T12:00:14;8.43;;;3.72;;
26486;SDS011;14425;56.136;40.360;2024-02-21T12:02:40;7.05;;;4.20;;
26486;SDS011;14425;56.136;40.360;2024-02-21T12:05:06;4.95;;;3.92;;
26486;SDS011;14425;56.136;40.360;2024-02-21T12:07:31;5.43;;;3.90;;
26486;SDS011;14425;56.136;40.360;2024-02-21T12:09:58;4.47;;;3.47;;
26486;SDS011;14425;56.136;40.360;2024-02-21T12:12:24;6.13;;;3.55;;
26486;SDS011;14425;56.136;40.360;2024-02-21T12:14:54;4.85;;;3.60;;
26486;SDS011;14425;56.136;40.360;2024-02-21T12:17:20;4.65;;;3.25;;
26486;SDS011;14425;56.136;40.360;2024-02-21T12:19:45;5.28;;;4.00;;
26486;SDS011;14425;56.136;40.360;2024-02-21T12:22:16;5.72;;;4.10;;
26486;SDS011;14425;56.136;40.360;2024-02-21T12:24:41;5.15;;;3.05;;
26486;SDS011;14425;56.136;40.360;2024-02-21T12:27:12;4.68;;;3.83;;
26486;SDS011;14425;56.136;40.360;2024-02-21T12:29:37;4.45;;;3.42;;
26486;SDS011;14425;56.136;40.360;2024-02-21T12:32:03;6.00;;;4.35;;
26486;SDS011;14425;56.136;40.360;2024-02-21T12:34:29;5.88;;;4.00;;
26486;SDS011;14425;56.136;40.360;2024-02-21T12:36:57;6.53;;;4.18;;
26486;SDS011;14425;56.136;40.360;2024-02-21T12:39:23;4.57;;;3.20;;
26486;SDS011;14425;56.136;40.360;2024-02-21T12:41:48;6.78;;;4.18;;
26486;SDS011;14425;56.136;40.360;2024-02-21T12:44:14;6.18;;;3.70;;
26486;SDS011;14425;56.136;40.360;2024-02-21T12:46:41;5.28;;;3.60;;
26486;SDS011;14425;56.136;40.360;2024-02-21T12:49:06;5.35;;;3.97;;
26486;SDS011;14425;56.136;40.360;2024-02-21T12:51:35;7.10;;;4.28;;
26486;SDS011;14425;56.136;40.360;2024-02-21T12:54:01;4.07;;;3.45;;
26486;SDS011;14425;56.136;40.360;2024-02-21T12:56:28;3.80;;;3.35;;
26486;SDS011;14425;56.136;40.360;2024-02-21T12:58:53;5.35;;;4.30;;
26486;SDS011;14425;56.136;40.360;2024-02-21T13:01:19;4.60;;;3.33;;
26486;SDS011;14425;56.136;40.360;2024-02-21T13:03:44;7.80;;;4.07;;
26486;SDS011;14425;56.136;40.360;2024-02-21T13:06:12;5.43;;;4.00;;
26486;SDS011;14425;56.136;40.360;2024-02-21T13:08:37;4.75;;;3.72;;
26486;SDS011;14425;56.136;40.360;2024-02-21T13:11:03;7.55;;;4.15;;
26486;SDS011;14425;56.136;40.360;2024-02-21T13:13:29;5.43;;;4.15;;
26486;SDS011;14425;56.136;40.360;2024-02-21T13:15:54;7.13;;;4.10;;
26486;SDS011;14425;56.136;40.360;2024-02-21T13:18:20;7.32;;;4.00;;
26486;SDS011;14425;56.136;40.360;2024-02-21T13:20:45;5.00;;;3.72;;
26486;SDS011;14425;56.136;40.360;2024-02-21T13:23:10;8.38;;;3.78;;
26486;SDS011;14425;56.136;40.360;2024-02-21T13:25:36;6.85;;;3.97;;
26486;SDS011;14425;56.136;40.360;2024-02-21T13:28:01;9.10;;;3.92;;
26486;SDS011;14425;56.136;40.360;2024-02-21T13:30:28;4.93;;;3.20;;
26486;SDS011;14425;56.136;40.360;2024-02-21T13:32:54;5.97;;;3.78;;
26486;SDS011;14425;56.136;40.360;2024-02-21T13:35:22;7.90;;;4.07;;
26486;SDS011;14425;56.136;40.360;2024-02-21T13:37:47;5.30;;;3.90;;
26486;SDS011;14425;56.136;40.360;2024-02-21T13:40:12;5.15;;;4.13;;
26486;SDS011;14425;56.136;40.360;2024-02-21T13:42:39;5.57;;;4.10;;
26486;SDS011;14425;56.136;40.360;2024-02-21T13:45:04;7.78;;;4.22;;
26486;SDS011;14425;56.136;40.360;2024-02-21T13:47:31;5.35;;;4.03;;
26486;SDS011;14425;56.136;40.360;2024-02-21T13:49:57;5.45;;;4.18;;
26486;SDS011;14425;56.136;40.360;2024-02-21T13:52:22;6.45;;;3.83;;
26486;SDS011;14425;56.136;40.360;2024-02-21T13:54:51;9.45;;;4.80;;
26486;SDS011;14425;56.136;40.360;2024-02-21T13:57:16;6.10;;;4.10;;
26486;SDS011;14425;56.136;40.360;2024-02-21T13:59:41;7.45;;;4.60;;
26486;SDS011;14425;56.136;40.360;2024-02-21T14:02:07;9.60;;;5.45;;
26486;SDS011;14425;56.136;40.360;2024-02-21T14:04:33;11.77;;;5.45;;
26486;SDS011;14425;56.136;40.360;2024-02-21T14:07:00;7.43;;;4.88;;
26486;SDS011;14425;56.136;40.360;2024-02-21T14:09:25;5.68;;;4.10;;
26486;SDS011;14425;56.136;40.360;2024-02-21T14:11:51;7.15;;;4.43;;
26486;SDS011;14425;56.136;40.360;2024-02-21T14:14:16;6.75;;;4.22;;
26486;SDS011;14425;56.136;40.360;2024-02-21T14:16:42;6.20;;;3.90;;
26486;SDS011;14425;56.136;40.360;2024-02-21T14:19:07;5.47;;;4.10;;
26486;SDS011;14425;56.136;40.360;2024-02-21T14:21:34;7.43;;;4.05;;
26486;SDS011;14425;56.136;40.360;2024-02-21T14:24:02;6.25;;;4.00;;
26486;SDS011;14425;56.136;40.360;2024-02-21T14:26:28;4.60;;;3.67;;
26486;SDS011;14425;56.136;40.360;2024-02-21T14:28:55;7.28;;;4.47;;
26486;SDS011;14425;56.136;40.360;2024-02-21T14:31:22;4.50;;;3.70;;